| time (UTC) | temp F | wind direction | speed MPH | gust MPH | rain 1hr in | rain 24hr in | rain mn in | humidity % | barometer mb |
| 20260503215004 | 62 | 133 | 7.0 | 16.0 | 0.00 | 0.00 | 0.00 | 37 | 1017.1 |
| 20260503214517 | 62 | 182 | 8.0 | 13.0 | 0.00 | 0.00 | 0.00 | 36 | 1017.2 |
| 20260503214004 | 63 | 110 | 5.0 | 13.0 | 0.00 | 0.00 | 0.00 | 37 | 1017.3 |
| 20260503213504 | 63 | 190 | 6.0 | 13.0 | 0.00 | 0.00 | 0.00 | 37 | 1017.4 |
| 20260503213028 | 63 | 185 | 7.0 | 11.0 | 0.00 | 0.00 | 0.00 | 36 | 1017.4 |
| 20260503212507 | 63 | 186 | 5.0 | 14.0 | 0.00 | 0.00 | 0.00 | 39 | 1017.3 |
| 20260503212013 | 62 | 212 | 5.0 | 14.0 | 0.00 | 0.00 | 0.00 | 38 | 1017.4 |
| 20260503211519 | 62 | 145 | 6.0 | 14.0 | 0.00 | 0.00 | 0.00 | 39 | 1017.5 |
| 20260503211008 | 62 | 181 | 5.0 | 10.0 | 0.00 | 0.00 | 0.00 | 39 | 1017.6 |
| 20260503210510 | 62 | 94 | 7.0 | 11.0 | 0.00 | 0.00 | 0.00 | 39 | 1017.7 |
| 20260503210022 | 63 | 150 | 5.0 | 12.0 | 0.00 | 0.00 | 0.00 | 40 | 1017.8 |
| 20260503205514 | 63 | 147 | 6.0 | 16.0 | 0.00 | 0.00 | 0.00 | 38 | 1017.8 |
| 20260503205013 | 62 | 231 | 3.0 | 16.0 | 0.00 | 0.00 | 0.00 | 38 | 1017.7 |
| 20260503204509 | 62 | 186 | 9.0 | 16.0 | 0.00 | 0.00 | 0.00 | 37 | 1017.8 |
| 20260503204006 | 62 | 146 | 5.0 | 15.0 | 0.00 | 0.00 | 0.00 | 37 | 1018.0 |
| 20260503203505 | 62 | 200 | 6.0 | 15.0 | 0.00 | 0.00 | 0.00 | 38 | 1018.1 |
| 20260503203014 | 62 | 203 | 4.0 | 15.0 | 0.00 | 0.00 | 0.00 | 41 | 1018.4 |
| 20260503202506 | 62 | 163 | 7.0 | 14.0 | 0.00 | 0.00 | 0.00 | 40 | 1018.5 |
| 20260503202009 | 62 | 213 | 10.0 | 16.0 | 0.00 | 0.00 | 0.00 | 39 | 1018.6 |
| 20260503201514 | 62 | 185 | 7.0 | 16.0 | 0.00 | 0.00 | 0.00 | 39 | 1018.6 |
| 20260503201009 | 62 | 139 | 9.0 | 16.0 | 0.00 | 0.00 | 0.00 | 39 | 1018.7 |
| 20260503200509 | 62 | 169 | 6.0 | 15.0 | 0.00 | 0.00 | 0.00 | 40 | 1018.9 |
| 20260503200020 | 62 | 161 | 9.0 | 15.0 | 0.00 | 0.00 | 0.00 | 40 | 1019.0 |
| 20260503195511 | 62 | 213 | 7.0 | 15.0 | 0.00 | 0.00 | 0.00 | 40 | 1019.0 |
| 20260503195009 | 61 | 181 | 5.0 | 15.0 | 0.00 | 0.00 | 0.00 | 37 | 1019.0 |
| 20260503194526 | 62 | 143 | 7.0 | 15.0 | 0.00 | 0.00 | 0.00 | 37 | 1019.1 |
| 20260503194009 | 61 | 166 | 4.0 | 12.0 | 0.00 | 0.00 | 0.00 | 40 | 1019.1 |
| 20260503193510 | 61 | 219 | 6.0 | 12.0 | 0.00 | 0.00 | 0.00 | 35 | 1019.3 |
| 20260503193010 | 61 | 162 | 4.0 | 15.0 | 0.00 | 0.00 | 0.00 | 38 | 1019.3 |
| 20260503192504 | 61 | 241 | 7.0 | 15.0 | 0.00 | 0.00 | 0.00 | 35 | 1019.5 |
| 20260503192012 | 61 | 211 | 7.0 | 13.0 | 0.00 | 0.00 | 0.00 | 36 | 1019.5 |
| 20260503191512 | 61 | 167 | 7.0 | 15.0 | 0.00 | 0.00 | 0.00 | 36 | 1019.5 |
| 20260503191008 | 61 | 210 | 9.0 | 15.0 | 0.00 | 0.00 | 0.00 | 35 | 1019.7 |
| 20260503190507 | 61 | 170 | 5.0 | 12.0 | 0.00 | 0.00 | 0.00 | 35 | 1019.7 |
| 20260503190017 | 61 | 224 | 5.0 | 12.0 | 0.00 | 0.00 | 0.00 | 35 | 1019.8 |
| 20260503185508 | 61 | 189 | 7.0 | 12.0 | 0.00 | 0.00 | 0.00 | 36 | 1019.9 |
| 20260503185008 | 60 | 203 | 5.0 | 14.0 | 0.00 | 0.00 | 0.00 | 38 | 1019.9 |
| 20260503184524 | 60 | 179 | 6.0 | 14.0 | 0.00 | 0.00 | 0.00 | 38 | 1019.9 |
| 20260503184012 | 61 | 193 | 6.0 | 15.0 | 0.00 | 0.00 | 0.00 | 41 | 1019.9 |
| 20260503183510 | 60 | 199 | 7.0 | 15.0 | 0.00 | 0.00 | 0.00 | 41 | 1019.9 |
| 20260503183031 | 60 | 158 | 6.0 | 12.0 | 0.00 | 0.00 | 0.00 | 38 | 1020.0 |
| 20260503182509 | 59 | 178 | 7.0 | 13.0 | 0.00 | 0.00 | 0.00 | 38 | 1020.0 |
| 20260503182008 | 59 | 229 | 8.0 | 13.0 | 0.00 | 0.00 | 0.00 | 39 | 1020.2 |
| 20260503181526 | 60 | 193 | 5.0 | 12.0 | 0.00 | 0.00 | 0.00 | 38 | 1020.2 |
| 20260503181007 | 59 | 143 | 3.0 | 15.0 | 0.00 | 0.00 | 0.00 | 36 | 1020.3 |
| 20260503180506 | 59 | 147 | 3.0 | 15.0 | 0.00 | 0.00 | 0.00 | 36 | 1020.3 |
| 20260503180031 | 59 | 160 | 4.0 | 10.0 | 0.00 | 0.00 | 0.00 | 36 | 1020.4 |
| 20260503175513 | 59 | 47 | 3.0 | 10.0 | 0.00 | 0.00 | 0.00 | 37 | 1020.4 |
| 20260503175006 | 58 | 180 | 3.0 | 11.0 | 0.00 | 0.00 | 0.00 | 39 | 1020.5 |
| 20260503174520 | 58 | 198 | 4.0 | 14.0 | 0.00 | 0.00 | 0.00 | 37 | 1020.7 |
| 20260503174007 | 59 | 169 | 8.0 | 14.0 | 0.00 | 0.00 | 0.00 | 36 | 1020.8 |
| 20260503173507 | 59 | 169 | 4.0 | 8.0 | 0.00 | 0.00 | 0.00 | 36 | 1020.8 |
| 20260503173026 | 57 | 110 | 3.0 | 10.0 | 0.00 | 0.00 | 0.00 | 35 | 1020.9 |
| 20260503172510 | 57 | 108 | 5.0 | 11.0 | 0.00 | 0.00 | 0.00 | 37 | 1021.0 |
| 20260503172010 | 58 | 150 | 6.0 | 13.0 | 0.00 | 0.00 | 0.00 | 38 | 1021.0 |
| 20260503171528 | 57 | 156 | 3.0 | 13.0 | 0.00 | 0.00 | 0.00 | 35 | 1021.0 |
| 20260503171009 | 58 | 203 | 9.0 | 13.0 | 0.00 | 0.00 | 0.00 | 36 | 1021.2 |
| 20260503170509 | 57 | 217 | 4.0 | 12.0 | 0.00 | 0.00 | 0.00 | 36 | 1021.3 |
| 20260503151009 | 54 | 190 | 4.0 | 10.0 | 0.00 | 0.00 | 0.00 | 42 | 1022.3 |
| 20260503150507 | 53 | 235 | 2.0 | 6.0 | 0.00 | 0.00 | 0.00 | 40 | 1022.2 |
| 20260503131005 | 46 | 147 | 2.0 | 5.0 | 0.00 | 0.00 | 0.00 | 77 | 1022.2 |
| 20260503130504 | 45 | 144 | 2.0 | 5.0 | 0.00 | 0.00 | 0.00 | 79 | 1022.1 |
| 20260503110514 | 32 | 351 | 0.0 | 0.0 | 0.00 | 0.00 | 0.00 | 93 | 1021.3 |
| 20260503090507 | 35 | 350 | 0.0 | 0.0 | 0.00 | 0.00 | 0.00 | 91 | 1020.7 |
| 20260503081507 | 36 | 352 | 0.0 | 0.0 | 0.00 | 0.00 | 0.00 | 90 | 1020.5 |
| 20260503081003 | 37 | 352 | 0.0 | 0.0 | 0.00 | 0.00 | 0.00 | 90 | 1020.5 |
| 20260503080503 | 37 | 352 | 0.0 | 0.0 | 0.00 | 0.00 | 0.00 | 90 | 1020.6 |
| 20260503072509 | 38 | 352 | 0.0 | 0.0 | 0.00 | 0.00 | 0.00 | 87 | 1020.2 |
| 20260503072009 | 38 | 352 | 0.0 | 0.0 | 0.00 | 0.00 | 0.00 | 86 | 1020.2 |
| 20260503071522 | 39 | 352 | 0.0 | 2.0 | 0.00 | 0.00 | 0.00 | 86 | 1020.2 |
| 20260503071009 | 39 | 352 | 0.0 | 2.0 | 0.00 | 0.00 | 0.00 | 86 | 1020.2 |
| 20260503070510 | 39 | 352 | 0.0 | 2.0 | 0.00 | 0.00 | 0.00 | 86 | 1020.2 |
| 20260503055008 | 41 | 350 | 2.0 | 4.0 | 0.00 | 0.00 | 0.00 | 87 | 1020.3 |
| 20260503054535 | 41 | 349 | 1.0 | 5.0 | 0.00 | 0.00 | 0.00 | 89 | 1020.3 |
| 20260503054004 | 40 | 321 | 3.0 | 5.0 | 0.00 | 0.00 | 0.00 | 91 | 1020.2 |
| 20260503053507 | 40 | 340 | 2.0 | 3.0 | 0.00 | 0.00 | 0.00 | 92 | 1020.2 |
| 20260503053017 | 39 | 342 | 2.0 | 3.0 | 0.00 | 0.00 | 0.00 | 92 | 1020.1 |
| 20260503052506 | 38 | 338 | 1.0 | 3.0 | 0.00 | 0.00 | 0.00 | 92 | 1020.1 |
| 20260503052010 | 38 | 358 | 0.0 | 2.0 | 0.00 | 0.00 | 0.00 | 92 | 1020.1 |
| 20260503051520 | 39 | 358 | 0.0 | 2.0 | 0.00 | 0.00 | 0.00 | 91 | 1020.1 |
| 20260503051006 | 39 | 358 | 0.0 | 2.0 | 0.00 | 0.00 | 0.00 | 91 | 1020.1 |
| 20260503050513 | 39 | 358 | 0.0 | 0.0 | 0.00 | 0.00 | 0.00 | 91 | 1020.0 |
| 20260503050028 | 39 | 358 | 0.0 | 0.0 | 0.00 | 0.00 | 0.00 | 92 | 1019.9 |
| 20260503045504 | 39 | 358 | 0.0 | 0.0 | 0.00 | 0.00 | 0.00 | 92 | 1019.9 |
| 20260503045006 | 39 | 358 | 0.0 | 2.0 | 0.00 | 0.00 | 0.00 | 92 | 1019.9 |
| 20260503044509 | 40 | 358 | 0.0 | 2.0 | 0.00 | 0.00 | 0.00 | 91 | 1019.9 |
| 20260503044006 | 40 | 358 | 0.0 | 2.0 | 0.00 | 0.00 | 0.00 | 91 | 1019.8 |
| 20260503043504 | 40 | 358 | 0.0 | 0.0 | 0.00 | 0.00 | 0.00 | 91 | 1019.9 |
| 20260503043010 | 40 | 358 | 0.0 | 0.0 | 0.00 | 0.00 | 0.00 | 91 | 1019.9 |
| 20260503042511 | 40 | 358 | 0.0 | 0.0 | 0.00 | 0.00 | 0.00 | 91 | 1019.8 |
| 20260503042008 | 40 | 358 | 0.0 | 0.0 | 0.00 | 0.00 | 0.00 | 92 | 1019.8 |
| 20260503041519 | 40 | 358 | 0.0 | 0.0 | 0.00 | 0.00 | 0.00 | 91 | 1019.8 |
| 20260503041008 | 40 | 358 | 0.0 | 0.0 | 0.00 | 0.00 | 0.00 | 91 | 1019.9 |
| 20260503040515 | 41 | 358 | 0.0 | 0.0 | 0.00 | 0.00 | 0.00 | 91 | 1019.8 |
| 20260503040028 | 41 | 358 | 0.0 | 1.0 | 0.00 | 0.00 | 0.00 | 91 | 1019.7 |
| 20260503035507 | 41 | 358 | 0.0 | 1.0 | 0.00 | 0.00 | 0.00 | 90 | 1019.7 |
| 20260503035010 | 41 | 358 | 0.0 | 1.0 | 0.00 | 0.00 | 0.00 | 90 | 1019.7 |
| 20260503034525 | 41 | 358 | 0.0 | 1.0 | 0.00 | 0.00 | 0.00 | 90 | 1019.7 |
| 20260503034008 | 42 | 358 | 1.0 | 1.0 | 0.00 | 0.00 | 0.00 | 89 | 1019.7 |
| 20260503033505 | 42 | 358 | 0.0 | 0.0 | 0.00 | 0.00 | 0.00 | 89 | 1019.8 |
| 20260503033008 | 42 | 358 | 0.0 | 0.0 | 0.00 | 0.00 | 0.00 | 89 | 1019.7 |
| 20260503032505 | 42 | 358 | 0.0 | 0.0 | 0.00 | 0.00 | 0.00 | 89 | 1019.7 |
| 20260503032006 | 43 | 358 | 0.0 | 0.0 | 0.00 | 0.00 | 0.00 | 88 | 1019.7 |
| 20260503031512 | 43 | 358 | 0.0 | 0.0 | 0.00 | 0.00 | 0.00 | 88 | 1019.7 |
| 20260503031008 | 43 | 358 | 0.0 | 0.0 | 0.00 | 0.00 | 0.00 | 87 | 1019.8 |
| 20260503030506 | 43 | 357 | 0.0 | 0.0 | 0.00 | 0.00 | 0.00 | 87 | 1019.7 |
| 20260503030020 | 43 | 357 | 0.0 | 0.0 | 0.00 | 0.00 | 0.00 | 86 | 1019.8 |
| 20260503025509 | 44 | 357 | 0.0 | 0.0 | 0.00 | 0.00 | 0.00 | 85 | 1019.7 |
| 20260503025007 | 44 | 356 | 0.0 | 0.0 | 0.00 | 0.00 | 0.00 | 84 | 1019.6 |
| 20260503024521 | 44 | 356 | 0.0 | 0.0 | 0.00 | 0.00 | 0.00 | 83 | 1019.6 |
| 20260503024010 | 45 | 356 | 0.0 | 0.0 | 0.00 | 0.00 | 0.00 | 83 | 1019.5 |
| 20260503023511 | 45 | 356 | 0.0 | 0.0 | 0.00 | 0.00 | 0.00 | 84 | 1019.4 |
| 20260503023028 | 44 | 348 | 0.0 | 0.0 | 0.00 | 0.00 | 0.00 | 83 | 1019.4 |
| 20260503022509 | 45 | 332 | 0.0 | 0.0 | 0.00 | 0.00 | 0.00 | 83 | 1019.4 |
| 20260503022007 | 45 | 353 | 0.0 | 0.0 | 0.00 | 0.00 | 0.00 | 82 | 1019.4 |
| 20260503021516 | 46 | 356 | 0.0 | 0.0 | 0.00 | 0.00 | 0.00 | 81 | 1019.3 |
| 20260503021006 | 46 | 355 | 0.0 | 0.0 | 0.00 | 0.00 | 0.00 | 79 | 1019.3 |
| 20260503020507 | 47 | 352 | 0.0 | 1.0 | 0.00 | 0.00 | 0.00 | 77 | 1019.2 |
| 20260503020015 | 47 | 357 | 0.0 | 2.0 | 0.00 | 0.00 | 0.00 | 75 | 1019.2 |
| 20260503015508 | 47 | 358 | 0.0 | 2.0 | 0.00 | 0.00 | 0.00 | 75 | 1019.2 |
| 20260503015009 | 47 | 358 | 0.0 | 2.0 | 0.00 | 0.00 | 0.00 | 78 | 1019.2 |
| 20260503014523 | 48 | 358 | 1.0 | 2.0 | 0.00 | 0.00 | 0.00 | 76 | 1019.2 |
| 20260503014007 | 49 | 358 | 1.0 | 2.0 | 0.00 | 0.00 | 0.00 | 72 | 1019.1 |
| 20260503013509 | 49 | 358 | 1.0 | 2.0 | 0.00 | 0.00 | 0.00 | 71 | 1019.1 |
| 20260503013024 | 49 | 360 | 1.0 | 2.0 | 0.00 | 0.00 | 0.00 | 70 | 1019.0 |
| 20260503012511 | 49 | 333 | 1.0 | 2.0 | 0.00 | 0.00 | 0.00 | 70 | 1018.9 |
| 20260503012009 | 49 | 334 | 0.0 | 2.0 | 0.00 | 0.00 | 0.00 | 70 | 1018.8 |
| 20260503011533 | 49 | 330 | 0.0 | 2.0 | 0.00 | 0.00 | 0.00 | 70 | 1018.8 |
| 20260503011010 | 49 | 330 | 1.0 | 2.0 | 0.00 | 0.00 | 0.00 | 69 | 1018.8 |
| 20260503010507 | 49 | 326 | 0.0 | 2.0 | 0.00 | 0.00 | 0.00 | 71 | 1018.6 |
| 20260503010014 | 49 | 328 | 1.0 | 2.0 | 0.00 | 0.00 | 0.00 | 72 | 1018.6 |
| 20260503005506 | 48 | 328 | 1.0 | 2.0 | 0.00 | 0.00 | 0.00 | 72 | 1018.5 |
| 20260503005011 | 49 | 342 | 1.0 | 2.0 | 0.00 | 0.00 | 0.00 | 72 | 1018.5 |
| 20260503004540 | 49 | 348 | 1.0 | 2.0 | 0.00 | 0.00 | 0.00 | 69 | 1018.4 |
| 20260503004009 | 50 | 351 | 1.0 | 2.0 | 0.00 | 0.00 | 0.00 | 66 | 1018.3 |
| 20260503003506 | 50 | 353 | 1.0 | 2.0 | 0.00 | 0.00 | 0.00 | 65 | 1018.3 |
| 20260503003022 | 50 | 342 | 1.0 | 2.0 | 0.00 | 0.00 | 0.00 | 65 | 1018.1 |
| 20260503002509 | 51 | 360 | 0.0 | 3.0 | 0.00 | 0.00 | 0.00 | 65 | 1018.0 |
| 20260503002012 | 51 | 1 | 0.0 | 4.0 | 0.00 | 0.00 | 0.00 | 63 | 1017.9 |
| 20260503001526 | 52 | 358 | 2.0 | 5.0 | 0.00 | 0.00 | 0.00 | 62 | 1017.9 |
| 20260503001011 | 52 | 359 | 3.0 | 5.0 | 0.00 | 0.00 | 0.00 | 61 | 1017.9 |
| 20260503000514 | 52 | 338 | 1.0 | 5.0 | 0.00 | 0.00 | 0.00 | 61 | 1017.8 |
| 20260502235509 | 52 | 354 | 3.0 | 5.0 | 0.00 | 0.00 | 0.00 | 59 | 1017.8 |
| 20260502235010 | 52 | 358 | 3.0 | 4.0 | 0.00 | 0.00 | 0.00 | 58 | 1017.9 |
| 20260502234530 | 53 | 326 | 2.0 | 4.0 | 0.00 | 0.00 | 0.00 | 57 | 1017.8 |
| 20260502234006 | 53 | 326 | 2.0 | 4.0 | 0.00 | 0.00 | 0.00 | 56 | 1017.8 |
| 20260502233508 | 53 | 320 | 2.0 | 5.0 | 0.00 | 0.00 | 0.00 | 57 | 1017.8 |
| 20260502233020 | 53 | 302 | 3.0 | 5.0 | 0.00 | 0.00 | 0.00 | 55 | 1017.8 |
| 20260502232510 | 53 | 318 | 3.0 | 5.0 | 0.00 | 0.00 | 0.00 | 55 | 1017.8 |
| 20260502232008 | 53 | 336 | 3.0 | 7.0 | 0.00 | 0.00 | 0.00 | 57 | 1017.8 |
| 20260502231524 | 53 | 323 | 5.0 | 7.0 | 0.00 | 0.00 | 0.00 | 53 | 1017.7 |
| 20260502231009 | 54 | 300 | 5.0 | 9.0 | 0.00 | 0.00 | 0.00 | 53 | 1017.7 |
| 20260502230508 | 54 | 297 | 6.0 | 9.0 | 0.00 | 0.00 | 0.00 | 52 | 1017.7 |
| 20260502230027 | 54 | 309 | 7.0 | 10.0 | 0.00 | 0.00 | 0.00 | 52 | 1017.7 |
| 20260502225508 | 54 | 333 | 7.0 | 10.0 | 0.00 | 0.00 | 0.00 | 52 | 1017.7 |
| 20260502225003 | 53 | 345 | 3.0 | 8.0 | 0.00 | 0.00 | 0.00 | 53 | 1017.7 |
| 20260502224506 | 53 | 315 | 6.0 | 9.0 | 0.00 | 0.00 | 0.00 | 52 | 1017.7 |
| 20260502224005 | 54 | 310 | 7.0 | 9.0 | 0.00 | 0.00 | 0.00 | 51 | 1017.7 |
| 20260502223503 | 54 | 321 | 5.0 | 9.0 | 0.00 | 0.00 | 0.00 | 51 | 1017.7 |
| 20260502223008 | 55 | 340 | 7.0 | 10.0 | 0.00 | 0.00 | 0.00 | 49 | 1017.7 |
| 20260502222502 | 55 | 281 | 5.0 | 10.0 | 0.00 | 0.00 | 0.00 | 49 | 1017.6 |
| 20260502222004 | 55 | 345 | 7.0 | 11.0 | 0.00 | 0.00 | 0.00 | 49 | 1017.7 |
| 20260502221503 | 55 | 310 | 6.0 | 11.0 | 0.00 | 0.00 | 0.00 | 48 | 1017.6 |
| 20260502221004 | 55 | 159 | 4.0 | 9.0 | 0.00 | 0.00 | 0.00 | 49 | 1017.6 |
| 20260502220504 | 54 | 184 | 4.0 | 11.0 | 0.00 | 0.00 | 0.00 | 49 | 1017.5 |
| 20260502220013 | 54 | 303 | 7.0 | 11.0 | 0.00 | 0.00 | 0.00 | 47 | 1017.5 |
| 20260502215503 | 55 | 271 | 5.0 | 12.0 | 0.00 | 0.00 | 0.00 | 49 | 1017.5 |